createdAt,value
2017-11-20T00:01:34.682Z,7.00
2017-11-20T00:04:03.491Z,6.90
2017-11-20T00:06:32.345Z,7.20
2017-11-20T00:09:01.932Z,7.10
2017-11-20T00:11:31.547Z,6.90
2017-11-20T00:14:01.274Z,6.90
2017-11-20T00:16:30.118Z,6.80
2017-11-20T00:18:58.963Z,6.80
2017-11-20T00:21:27.853Z,6.80
2017-11-20T00:23:57.970Z,6.90
2017-11-20T00:26:27.792Z,7.00
2017-11-20T00:28:56.770Z,7.00
2017-11-20T00:31:25.728Z,6.90
2017-11-20T00:33:55.457Z,6.90
2017-11-20T00:36:25.046Z,6.80
2017-11-20T00:38:54.811Z,6.80
2017-11-20T00:41:23.812Z,6.70
2017-11-20T00:43:52.772Z,6.70
2017-11-20T00:46:21.735Z,6.70
2017-11-20T00:48:51.524Z,6.60
2017-11-20T00:51:20.573Z,6.60
2017-11-20T00:53:49.796Z,6.60
2017-11-20T00:56:19.094Z,6.70
2017-11-20T00:58:48.865Z,6.60
2017-11-20T01:01:17.859Z,6.60
2017-11-20T01:03:46.760Z,6.70
2017-11-20T01:06:15.830Z,6.90
2017-11-20T01:08:44.780Z,6.90
2017-11-20T01:11:14.668Z,7.00
2017-11-20T01:13:45.084Z,6.80
2017-11-20T01:16:14.752Z,6.70
2017-11-20T01:18:44.709Z,6.90
2017-11-20T01:21:14.694Z,6.80
2017-11-20T01:23:44.096Z,6.90
2017-11-20T01:26:14.507Z,6.90
2017-11-20T01:28:43.520Z,6.90
2017-11-20T01:31:12.479Z,6.90
2017-11-20T01:33:41.572Z,6.80
2017-11-20T01:36:10.766Z,6.80
2017-11-20T01:38:39.747Z,6.70
2017-11-20T01:41:08.799Z,6.50
2017-11-20T01:43:38.083Z,6.60
2017-11-20T01:46:09.229Z,6.60
2017-11-20T01:48:39.113Z,6.60
2017-11-20T01:51:08.854Z,6.50
2017-11-20T01:53:37.872Z,6.40
2017-11-20T01:56:06.872Z,6.60
2017-11-20T01:58:35.839Z,6.70
2017-11-20T02:01:05.015Z,6.60
2017-11-20T02:03:35.146Z,6.60
2017-11-20T02:06:04.094Z,6.60
2017-11-20T02:08:33.028Z,6.50
2017-11-20T02:11:05.721Z,6.50
2017-11-20T02:13:36.460Z,6.40
2017-11-20T02:16:06.200Z,6.60
2017-11-20T02:18:35.126Z,6.80
2017-11-20T02:21:04.522Z,6.80
2017-11-20T02:23:33.754Z,6.60
2017-11-20T02:26:02.712Z,6.60
2017-11-20T02:28:31.795Z,6.60
2017-11-20T02:31:01.511Z,6.80
2017-11-20T02:33:31.276Z,6.80
2017-11-20T02:36:00.331Z,6.80
2017-11-20T02:38:29.608Z,6.60
2017-11-20T02:41:00.983Z,7.00
2017-11-20T02:43:30.905Z,6.90
2017-11-20T02:45:59.959Z,6.80
2017-11-20T02:48:30.586Z,7.00
2017-11-20T02:50:59.504Z,6.90
2017-11-20T02:53:28.488Z,6.90
2017-11-20T02:55:58.233Z,6.80
2017-11-20T02:58:27.236Z,6.70
2017-11-20T03:00:59.425Z,6.70
2017-11-20T03:03:28.737Z,6.50
2017-11-20T03:05:58.022Z,6.60
2017-11-20T03:08:28.027Z,6.70
2017-11-20T03:10:57.048Z,6.70
2017-11-20T03:13:26.047Z,6.70
2017-11-20T03:15:56.093Z,6.60
2017-11-20T03:18:25.040Z,6.50
2017-11-20T03:20:54.054Z,6.50
2017-11-20T03:23:22.989Z,6.50
2017-11-20T03:25:52.042Z,6.60
2017-11-20T03:28:21.037Z,6.50
2017-11-20T03:30:50.414Z,6.50
2017-11-20T03:33:19.507Z,6.70
2017-11-20T03:35:48.555Z,6.70
2017-11-20T03:38:18.171Z,6.60
2017-11-20T03:40:47.927Z,6.50
2017-11-20T03:43:16.891Z,6.40
2017-11-20T03:45:46.586Z,6.60
2017-11-20T03:48:16.332Z,6.60
2017-11-20T03:50:45.352Z,6.60
2017-11-20T03:53:14.302Z,6.60
2017-11-20T03:55:43.402Z,6.70
2017-11-20T03:58:13.204Z,6.90
2017-11-20T04:00:42.972Z,6.80
2017-11-20T04:03:11.904Z,6.70
2017-11-20T04:05:40.911Z,6.60
2017-11-20T04:08:09.882Z,6.40
2017-11-20T04:10:38.837Z,6.50
2017-11-20T04:13:07.796Z,6.40
2017-11-20T04:15:37.501Z,6.60
2017-11-20T04:18:06.623Z,6.70
2017-11-20T04:20:35.603Z,6.80
2017-11-20T04:23:04.617Z,7.00
2017-11-20T04:25:33.739Z,7.00
2017-11-20T04:28:03.876Z,6.90
2017-11-20T04:30:32.989Z,6.80
2017-11-20T04:33:02.045Z,6.70
2017-11-20T04:35:31.792Z,6.50
2017-11-20T04:38:00.699Z,6.50
2017-11-20T04:40:29.587Z,6.60
2017-11-20T04:42:59.428Z,6.70
2017-11-20T04:45:28.613Z,6.70
2017-11-20T04:47:57.582Z,6.50
2017-11-20T04:50:27.744Z,6.40
2017-11-20T04:52:56.802Z,6.30
2017-11-20T04:55:27.335Z,6.60
2017-11-20T04:57:58.703Z,6.70
2017-11-20T05:00:27.760Z,6.60
2017-11-20T05:02:57.196Z,6.50
2017-11-20T05:05:28.171Z,6.50
2017-11-20T05:07:57.208Z,6.40
2017-11-20T05:10:26.868Z,6.30
2017-11-20T05:12:56.140Z,6.30
2017-11-20T05:15:25.196Z,6.30
2017-11-20T05:17:54.092Z,6.40
2017-11-20T05:20:22.880Z,6.40
2017-11-20T05:22:51.727Z,6.50
2017-11-20T05:25:21.325Z,6.50
2017-11-20T05:27:50.954Z,6.50
2017-11-20T05:30:21.658Z,6.50
2017-11-20T05:32:51.433Z,6.80
2017-11-20T05:35:20.728Z,6.70
2017-11-20T05:37:49.716Z,6.70
2017-11-20T05:40:18.676Z,6.60
2017-11-20T05:42:48.410Z,6.50
2017-11-20T05:45:17.681Z,6.60
2017-11-20T05:47:47.697Z,6.70
2017-11-20T05:50:17.432Z,6.70
2017-11-20T05:52:47.161Z,6.50
2017-11-20T05:55:16.118Z,6.50
2017-11-20T05:57:45.056Z,6.60
2017-11-20T06:00:14.570Z,6.50
2017-11-20T06:02:43.539Z,6.50
2017-11-20T06:05:13.356Z,6.60
2017-11-20T06:07:42.374Z,6.50
2017-11-20T06:10:11.432Z,6.40
2017-11-20T06:12:43.263Z,6.40
2017-11-20T06:15:13.020Z,6.30
2017-11-20T06:17:42.079Z,6.40
2017-11-20T06:20:11.182Z,6.40
2017-11-20T06:22:40.954Z,6.40
2017-11-20T06:25:09.894Z,6.50
2017-11-20T06:27:38.920Z,6.60
2017-11-20T06:30:07.971Z,6.50
2017-11-20T06:32:37.759Z,6.50
2017-11-20T06:35:06.873Z,6.50
2017-11-20T06:37:38.664Z,6.30
2017-11-20T06:40:09.807Z,6.40
2017-11-20T06:42:39.973Z,6.40
2017-11-20T06:45:08.830Z,6.40
2017-11-20T06:47:37.707Z,6.70
2017-11-20T06:50:07.446Z,6.40
2017-11-20T06:52:36.383Z,6.40
2017-11-20T06:55:06.366Z,6.30
2017-11-20T06:57:35.237Z,6.20
2017-11-20T07:00:04.195Z,6.20
2017-11-20T07:02:33.989Z,6.20
2017-11-20T07:05:03.057Z,6.10
2017-11-20T07:07:32.141Z,6.20
2017-11-20T07:10:01.109Z,6.10
2017-11-20T07:12:30.104Z,6.30
2017-11-20T07:14:59.112Z,6.40
2017-11-20T07:17:28.974Z,6.30
2017-11-20T07:19:57.905Z,6.20
2017-11-20T07:22:26.932Z,6.10
2017-11-20T07:24:56.754Z,6.20
2017-11-20T07:27:37.543Z,6.30
2017-11-20T07:30:18.372Z,6.40
2017-11-20T07:32:47.442Z,6.40
2017-11-20T07:35:17.148Z,6.30
2017-11-20T07:51:14.466Z,6.30
2017-11-20T07:53:44.415Z,6.40
2017-11-20T07:56:14.535Z,6.20
2017-11-20T07:58:50.604Z,6.20
2017-11-20T08:01:20.512Z,6.10
2017-11-20T08:03:49.423Z,6.20
2017-11-20T08:06:18.356Z,6.10
2017-11-20T08:08:49.089Z,6.10
2017-11-20T08:11:18.093Z,6.10
2017-11-20T08:13:47.076Z,6.20
2017-11-20T08:16:16.678Z,6.30
2017-11-20T08:18:45.610Z,6.30
2017-11-20T08:21:14.584Z,6.30
2017-11-20T08:23:44.498Z,6.20
2017-11-20T08:26:14.063Z,6.20
2017-11-20T08:28:44.117Z,6.20
2017-11-20T08:31:14.786Z,5.80
2017-11-20T08:33:43.772Z,5.80
2017-11-20T08:36:13.494Z,5.60
2017-11-20T08:38:42.938Z,5.50
2017-11-20T08:41:13.657Z,5.60
2017-11-20T08:43:43.692Z,5.70
2017-11-20T08:46:12.660Z,5.70
2017-11-20T08:48:41.794Z,5.70
2017-11-20T08:51:13.851Z,5.80
2017-11-20T08:53:42.941Z,5.90
2017-11-20T08:56:11.915Z,5.90
2017-11-20T08:58:40.867Z,5.90
2017-11-20T09:01:09.878Z,5.80
2017-11-20T09:03:39.512Z,5.70
2017-11-20T09:06:09.130Z,5.80
2017-11-20T09:08:37.938Z,5.80
2017-11-20T09:11:06.815Z,5.70
2017-11-20T09:13:35.665Z,5.60
2017-11-20T09:16:05.306Z,5.50
2017-11-20T09:18:34.130Z,5.50
2017-11-20T09:21:02.988Z,5.50
2017-11-20T09:23:31.860Z,5.60
2017-11-20T09:26:00.707Z,5.50
2017-11-20T09:28:30.563Z,5.60
2017-11-20T09:30:59.809Z,5.50
2017-11-20T09:33:28.656Z,5.80
2017-11-20T09:35:57.512Z,6.00
2017-11-20T09:38:27.561Z,5.90
2017-11-20T09:40:57.081Z,5.90
2017-11-20T09:43:25.952Z,5.60
2017-11-20T09:45:54.895Z,5.60
2017-11-20T09:48:23.735Z,5.80
2017-11-20T09:50:52.583Z,5.90
2017-11-20T09:53:21.420Z,5.90
2017-11-20T09:55:50.265Z,6.00
2017-11-20T09:58:19.091Z,5.80
2017-11-20T10:00:47.950Z,5.60
2017-11-20T10:03:16.849Z,5.50
2017-11-20T10:05:47.215Z,5.50
2017-11-20T10:08:16.026Z,5.40
2017-11-20T10:10:44.873Z,5.60
2017-11-20T10:13:14.485Z,5.70
2017-11-20T10:15:43.312Z,5.60
2017-11-20T10:18:12.149Z,5.70
2017-11-20T10:20:41.723Z,5.60
2017-11-20T10:23:10.573Z,5.60
2017-11-20T10:25:39.428Z,5.50
2017-11-20T10:28:09.042Z,5.40
2017-11-20T10:30:38.669Z,5.60
2017-11-20T10:33:07.515Z,5.50
2017-11-20T10:35:36.336Z,5.70
2017-11-20T10:38:05.298Z,5.80
2017-11-20T10:40:34.129Z,6.10
2017-11-20T10:43:02.966Z,6.00
2017-11-20T10:45:31.792Z,6.10
2017-11-20T10:48:01.419Z,6.20
2017-11-20T10:50:30.244Z,6.10
2017-11-20T10:52:59.383Z,6.10
2017-11-20T10:55:28.353Z,6.00
2017-11-20T10:57:57.211Z,6.00
2017-11-20T11:00:26.019Z,5.90
2017-11-20T11:02:54.868Z,5.90
2017-11-20T11:05:23.775Z,6.00
2017-11-20T11:07:52.582Z,5.80
2017-11-20T11:10:21.403Z,5.90
2017-11-20T11:12:50.243Z,6.10
2017-11-20T11:15:19.088Z,6.00
2017-11-20T11:17:47.883Z,6.10
2017-11-20T11:20:16.942Z,6.30
2017-11-20T11:22:45.728Z,6.10
2017-11-20T11:25:15.330Z,6.20
2017-11-20T11:27:44.150Z,6.20
2017-11-20T11:30:13.611Z,6.30
2017-11-20T11:32:45.247Z,6.50
2017-11-20T11:35:14.204Z,6.50
2017-11-20T11:37:43.810Z,6.30
2017-11-20T11:40:12.774Z,6.30
2017-11-20T11:42:41.769Z,6.40
2017-11-20T11:45:10.874Z,6.60
2017-11-20T11:47:41.607Z,6.80
2017-11-20T11:50:12.001Z,6.70
2017-11-20T11:52:41.739Z,6.50
2017-11-20T11:55:11.383Z,6.40
2017-11-20T11:57:40.930Z,6.30
2017-11-20T12:00:09.940Z,6.40
2017-11-20T12:02:39.003Z,6.50
2017-11-20T12:05:07.969Z,6.40
2017-11-20T12:07:36.918Z,6.30
2017-11-20T12:10:05.819Z,6.00
2017-11-20T12:12:35.571Z,5.80
2017-11-20T12:15:04.575Z,5.80
2017-11-20T12:17:35.726Z,5.90
2017-11-20T12:20:05.923Z,5.80
2017-11-20T12:22:40.545Z,6.10
2017-11-20T12:25:10.333Z,5.90
2017-11-20T12:27:39.239Z,6.00
2017-11-20T12:30:08.167Z,6.10
2017-11-20T12:32:37.096Z,5.90
2017-11-20T12:35:09.307Z,5.90
2017-11-20T12:37:38.266Z,5.90
2017-11-20T12:40:08.356Z,6.00
2017-11-20T12:42:37.329Z,6.00
2017-11-20T12:45:06.306Z,6.00
2017-11-20T12:47:35.438Z,6.10
2017-11-20T12:50:04.297Z,5.80
2017-11-20T12:52:33.201Z,5.60
2017-11-20T12:55:02.226Z,5.60
2017-11-20T12:57:31.597Z,5.60
2017-11-20T13:00:01.093Z,5.80
2017-11-20T13:02:30.079Z,5.90
2017-11-20T13:04:59.072Z,5.80
2017-11-20T13:07:27.979Z,5.90
2017-11-20T13:09:56.860Z,6.20
2017-11-20T13:12:25.716Z,6.40
2017-11-20T13:14:54.556Z,6.40
2017-11-20T13:17:23.420Z,6.40
2017-11-20T13:19:52.251Z,6.70
2017-11-20T13:22:21.106Z,6.60
2017-11-20T13:24:49.940Z,6.50
2017-11-20T13:27:20.285Z,6.20
2017-11-20T13:29:49.877Z,6.30
2017-11-20T13:32:18.703Z,6.20
2017-11-20T13:34:47.556Z,6.30
2017-11-20T13:37:16.390Z,6.20
2017-11-20T13:39:45.229Z,6.20
2017-11-20T13:42:15.605Z,5.90
2017-11-20T13:44:44.437Z,5.90
2017-11-20T13:47:13.263Z,5.90
2017-11-20T13:49:42.877Z,5.80
2017-11-20T13:52:11.715Z,5.80
2017-11-20T13:54:40.979Z,5.90
2017-11-20T13:57:09.825Z,5.90
2017-11-20T13:59:38.671Z,5.90
2017-11-20T14:02:07.519Z,6.00
2017-11-20T14:04:37.099Z,6.00
2017-11-20T14:07:05.960Z,6.00
2017-11-20T14:09:34.780Z,6.00
2017-11-20T14:12:03.650Z,6.10
2017-11-20T14:14:32.479Z,6.10
2017-11-20T14:17:01.333Z,6.10
2017-11-20T14:19:30.933Z,6.30
2017-11-20T14:22:00.550Z,6.00
2017-11-20T14:24:30.150Z,6.00
2017-11-20T14:26:58.979Z,5.90
2017-11-20T14:29:27.861Z,6.10
2017-11-20T14:31:56.667Z,6.10
2017-11-20T14:34:25.526Z,6.30
2017-11-20T14:36:55.105Z,6.20
2017-11-20T14:39:23.952Z,6.20
2017-11-20T14:41:52.789Z,6.20
2017-11-20T14:44:23.324Z,6.10
2017-11-20T14:46:52.942Z,6.20
2017-11-20T14:49:22.452Z,6.10
2017-11-20T14:52:04.228Z,6.20
2017-11-20T14:54:33.848Z,6.40
2017-11-20T14:57:03.431Z,6.40
2017-11-20T14:59:33.049Z,6.50
2017-11-20T15:02:02.660Z,6.50
2017-11-20T15:04:32.280Z,6.40
2017-11-20T15:07:01.129Z,6.40
2017-11-20T15:09:29.961Z,6.20
2017-11-20T15:11:58.807Z,6.20
2017-11-20T15:14:29.131Z,6.20
2017-11-20T15:16:57.992Z,6.20
2017-11-20T15:19:27.777Z,6.40
2017-11-20T15:21:56.662Z,6.40
2017-11-20T15:24:25.498Z,6.40
2017-11-20T15:26:54.342Z,6.20
2017-11-20T15:29:23.170Z,6.20
2017-11-20T15:31:52.029Z,6.30
2017-11-20T15:34:20.893Z,6.30
2017-11-20T15:36:50.485Z,6.30
2017-11-20T15:39:19.317Z,6.30
2017-11-20T15:41:48.169Z,6.10
2017-11-20T15:44:17.797Z,6.20
2017-11-20T15:46:46.662Z,6.20
2017-11-20T15:49:15.513Z,6.40
2017-11-20T15:51:45.331Z,6.50
2017-11-20T15:54:15.084Z,6.50
2017-11-20T15:56:44.704Z,6.40
2017-11-20T15:59:13.607Z,6.40
2017-11-20T16:01:42.462Z,6.60
2017-11-20T16:04:11.290Z,6.50
2017-11-20T16:06:40.236Z,6.40
2017-11-20T16:09:10.548Z,6.20
2017-11-20T16:11:39.396Z,6.20
2017-11-20T16:14:08.204Z,6.30
2017-11-20T16:16:37.053Z,6.40
2017-11-20T16:19:05.899Z,6.50
2017-11-20T16:21:34.767Z,6.50
2017-11-20T16:24:03.807Z,6.60
2017-11-20T16:26:33.389Z,6.50
2017-11-20T16:29:02.240Z,6.50
2017-11-20T16:31:31.062Z,6.50
2017-11-20T16:33:59.905Z,6.50
2017-11-20T16:36:28.798Z,6.40
2017-11-20T16:38:57.644Z,6.40
2017-11-20T16:41:27.978Z,6.40
2017-11-20T16:43:57.572Z,6.40
2017-11-20T16:46:27.189Z,6.50
2017-11-20T16:48:56.815Z,6.60
2017-11-20T16:51:25.670Z,6.60
2017-11-20T16:53:55.326Z,6.60
2017-11-20T16:56:24.211Z,6.60
2017-11-20T16:59:07.926Z,6.50
2017-11-20T17:01:49.334Z,6.80
2017-11-20T17:04:18.212Z,6.70
2017-11-20T17:06:47.065Z,6.80
2017-11-20T17:09:15.910Z,6.70
2017-11-20T17:11:44.741Z,6.70
2017-11-20T17:14:13.620Z,6.70
2017-11-20T17:16:43.262Z,6.90
2017-11-20T17:19:12.095Z,6.80
2017-11-20T17:21:41.157Z,6.90
2017-11-20T17:24:10.012Z,7.00
2017-11-20T17:26:39.680Z,7.00
2017-11-20T17:29:08.511Z,7.00
2017-11-20T17:31:38.126Z,7.00
2017-11-20T17:34:06.989Z,7.00
2017-11-20T17:36:35.829Z,7.00
2017-11-20T17:39:04.686Z,7.00
2017-11-20T17:41:34.274Z,7.10
2017-11-20T17:44:03.114Z,7.10
2017-11-20T17:46:31.931Z,7.30
2017-11-20T17:49:00.774Z,7.20
2017-11-20T17:51:29.610Z,7.20
2017-11-20T17:53:58.431Z,7.20
2017-11-20T17:56:28.071Z,7.10
2017-11-20T17:58:57.676Z,7.10
2017-11-20T18:01:26.536Z,7.00
2017-11-20T18:03:55.532Z,7.10
2017-11-20T18:06:25.303Z,7.20
2017-11-20T18:08:55.062Z,7.30
2017-11-20T18:11:25.114Z,7.30
2017-11-20T18:13:54.171Z,7.30
2017-11-20T18:16:24.757Z,7.30
2017-11-20T18:18:54.607Z,7.20
2017-11-20T18:21:24.783Z,7.10
2017-11-20T18:23:55.289Z,7.30
2017-11-20T18:26:25.144Z,7.30
2017-11-20T18:28:55.056Z,7.30
2017-11-20T18:31:24.706Z,7.30
2017-11-20T18:33:53.734Z,7.40
2017-11-20T18:36:23.428Z,7.50
2017-11-20T18:38:52.260Z,7.50
2017-11-20T18:41:21.113Z,7.60
2017-11-20T18:43:49.917Z,7.60
2017-11-20T18:46:19.533Z,7.60
2017-11-20T18:48:48.964Z,7.50
2017-11-20T18:51:18.489Z,7.50
2017-11-20T18:53:47.566Z,7.60
2017-11-20T18:56:17.500Z,7.70
2017-11-20T18:58:47.705Z,7.60
2017-11-20T19:01:30.475Z,7.70
2017-11-20T19:04:12.207Z,7.70
2017-11-20T19:06:53.322Z,7.70
2017-11-20T19:09:22.891Z,7.60
2017-11-20T19:11:52.500Z,7.70
2017-11-20T19:14:23.100Z,7.70
2017-11-20T19:16:52.696Z,7.70
2017-11-20T19:19:23.243Z,7.70
2017-11-20T19:21:52.830Z,7.80
2017-11-20T19:24:22.471Z,7.80
2017-11-20T19:26:52.731Z,7.80
2017-11-20T19:29:21.575Z,7.70
2017-11-20T19:31:54.664Z,7.90
2017-11-20T19:34:24.270Z,7.90
2017-11-20T19:36:53.864Z,7.90
2017-11-20T19:39:23.470Z,7.90
2017-11-20T19:41:53.598Z,7.90
2017-11-20T19:44:23.465Z,8.00
2017-11-20T19:46:52.356Z,7.90
2017-11-20T19:49:22.313Z,8.00
2017-11-20T19:51:52.874Z,8.00
2017-11-20T19:54:26.201Z,8.00
2017-11-20T19:56:56.306Z,8.10
2017-11-20T19:59:25.157Z,8.00
2017-11-20T20:01:54.948Z,8.20
2017-11-20T20:04:27.295Z,8.20
2017-11-20T20:06:57.250Z,8.10
2017-11-20T20:09:26.381Z,8.20
2017-11-20T20:11:55.693Z,8.20
2017-11-20T20:14:32.453Z,8.30
2017-11-20T20:17:12.034Z,8.40
2017-11-20T20:19:41.150Z,8.40
2017-11-20T20:22:15.795Z,8.40
2017-11-20T20:24:48.076Z,8.50
2017-11-20T20:29:51.944Z,8.50
2017-11-20T20:32:24.779Z,8.60
2017-11-20T20:34:53.910Z,8.60
2017-11-20T20:37:27.818Z,8.60
2017-11-20T20:39:56.848Z,8.70
2017-11-20T20:42:29.556Z,8.70
2017-11-20T20:45:05.704Z,8.80
2017-11-20T20:47:34.608Z,8.80
2017-11-20T20:50:03.431Z,8.80
2017-11-20T20:52:32.291Z,8.80
2017-11-20T20:55:01.168Z,8.80
2017-11-20T20:57:30.017Z,8.80
2017-11-20T21:00:00.573Z,8.70
2017-11-20T21:02:29.419Z,8.70
2017-11-20T21:04:58.272Z,8.80
2017-11-20T21:07:27.135Z,8.90
2017-11-20T21:10:01.592Z,8.90
2017-11-20T21:12:30.449Z,8.90
2017-11-20T21:14:59.315Z,9.00
2017-11-20T21:17:28.939Z,9.00
2017-11-20T21:19:57.774Z,8.90
2017-11-20T21:22:26.688Z,9.00
2017-11-20T21:24:55.610Z,9.00
2017-11-20T21:27:24.549Z,9.00
2017-11-20T21:29:53.380Z,9.10
2017-11-20T21:32:22.215Z,9.10
2017-11-20T21:34:51.059Z,9.00
2017-11-20T21:37:19.895Z,9.10
2017-11-20T21:39:48.765Z,9.10
2017-11-20T21:42:17.630Z,9.10
2017-11-20T21:44:46.483Z,9.10
2017-11-20T21:47:15.401Z,9.10
2017-11-20T21:49:45.847Z,9.20
2017-11-20T21:52:14.699Z,9.10
2017-11-20T21:54:45.116Z,9.20
2017-11-20T21:57:14.038Z,9.20
2017-11-20T21:59:43.363Z,9.20
2017-11-20T22:02:12.204Z,9.20
2017-11-20T22:04:41.047Z,9.20
2017-11-20T22:07:09.896Z,9.20
2017-11-20T22:09:40.120Z,9.20
2017-11-20T22:12:09.728Z,9.20
2017-11-20T22:14:39.002Z,9.10
2017-11-20T22:17:07.846Z,9.20
2017-11-20T22:19:36.680Z,9.20
2017-11-20T22:22:05.596Z,9.20
2017-11-20T22:24:35.201Z,9.30
2017-11-20T22:27:04.808Z,9.30
2017-11-20T22:29:34.426Z,9.40
2017-11-20T22:32:04.032Z,9.30
2017-11-20T22:34:32.890Z,9.30
2017-11-20T22:37:01.736Z,9.40
2017-11-20T22:39:30.933Z,9.40
2017-11-20T22:41:59.925Z,9.40
2017-11-20T22:44:28.763Z,9.50
2017-11-20T22:46:57.603Z,9.40
2017-11-20T22:49:26.900Z,9.40
2017-11-20T22:51:56.094Z,9.40
2017-11-20T22:54:25.804Z,9.40
2017-11-20T22:56:54.657Z,9.40
2017-11-20T22:59:24.299Z,9.40
2017-11-20T23:01:53.188Z,9.40
2017-11-20T23:04:22.057Z,9.50
2017-11-20T23:06:51.693Z,9.50
2017-11-20T23:09:20.822Z,9.40
2017-11-20T23:11:49.666Z,9.50
2017-11-20T23:14:18.546Z,9.50
2017-11-20T23:16:47.374Z,9.40
2017-11-20T23:19:16.219Z,9.50
2017-11-20T23:21:45.572Z,9.50
2017-11-20T23:24:14.411Z,9.50
2017-11-20T23:26:43.252Z,9.50
2017-11-20T23:29:13.605Z,9.60
2017-11-20T23:31:43.224Z,9.60
2017-11-20T23:34:12.059Z,9.60
2017-11-20T23:36:40.904Z,9.60
2017-11-20T23:39:09.766Z,9.70
2017-11-20T23:41:39.409Z,9.60
2017-11-20T23:44:08.252Z,9.60
2017-11-20T23:46:37.092Z,9.60
2017-11-20T23:49:05.995Z,9.60
2017-11-20T23:51:34.824Z,9.60
2017-11-20T23:54:04.451Z,9.70
2017-11-20T23:56:34.221Z,9.70
2017-11-20T23:59:03.068Z,9.70
